createdAt,value
2023-08-11T00:05:49.683Z,100343.66
2023-08-11T00:15:54.927Z,100311.31
2023-08-11T00:25:59.075Z,100346.88
2023-08-11T00:36:03.031Z,100318.53
2023-08-11T00:46:14.872Z,100308.44
2023-08-11T00:56:23.596Z,100336.50
2023-08-11T01:06:48.474Z,100336.97
2023-08-11T01:16:56.357Z,100312.31
2023-08-11T01:27:04.583Z,100308.34
2023-08-11T01:37:09.433Z,100328.44
2023-08-11T01:47:20.746Z,100330.56
2023-08-11T01:57:23.747Z,100296.56
2023-08-11T02:07:26.970Z,100337.50
2023-08-11T02:17:38.923Z,100337.59
2023-08-11T02:27:41.965Z,100320.72
2023-08-11T02:37:45.505Z,100315.16
2023-08-11T02:47:48.131Z,100286.91
2023-08-11T02:57:51.968Z,100345.16
2023-08-11T03:07:58.454Z,100339.19
2023-08-11T03:18:02.304Z,100310.91
2023-08-11T03:28:06.610Z,100318.75
2023-08-11T03:38:09.588Z,100323.53
2023-08-11T03:48:14.245Z,100353.16
2023-08-11T03:58:25.031Z,100356.00
2023-08-11T04:08:30.567Z,100367.03
2023-08-11T04:18:36.220Z,100349.03
2023-08-11T04:28:39.955Z,100398.72
2023-08-11T04:38:45.060Z,100390.34
2023-08-11T04:48:54.789Z,100401.09
2023-08-11T04:58:58.485Z,100390.63
2023-08-11T05:09:11.095Z,100422.59
2023-08-11T05:19:14.461Z,100399.34
2023-08-11T05:29:16.937Z,100431.53
2023-08-11T05:39:25.597Z,100445.63
2023-08-11T05:49:28.980Z,100436.09
2023-08-11T05:59:31.518Z,100447.81
2023-08-11T06:09:36.042Z,100424.78
2023-08-11T06:19:49.348Z,100422.03
2023-08-11T06:29:56.000Z,100456.38
2023-08-11T06:40:00.410Z,100433.41
2023-08-11T06:50:09.860Z,100443.63
2023-08-11T07:00:17.346Z,100462.47
2023-08-11T07:10:20.575Z,100461.84
2023-08-11T07:20:33.224Z,100482.31
2023-08-11T07:30:37.625Z,100488.81
2023-08-11T07:40:43.825Z,100483.28
2023-08-11T07:50:57.026Z,100483.81
2023-08-11T08:01:03.384Z,100484.16
2023-08-11T08:11:09.946Z,100481.75
2023-08-11T08:21:24.878Z,100464.22
2023-08-11T08:31:28.429Z,100500.09
2023-08-11T08:41:40.681Z,100473.78
2023-08-11T08:52:05.976Z,100469.25
2023-08-11T09:02:31.292Z,100488.69
2023-08-11T09:12:38.012Z,100473.47
2023-08-11T09:22:44.978Z,100461.44
2023-08-11T09:33:08.065Z,100447.59
2023-08-11T09:43:24.152Z,100460.69
2023-08-11T09:53:47.001Z,100461.31
2023-08-11T10:04:08.809Z,100462.44
2023-08-11T10:14:15.251Z,100452.91
2023-08-11T10:24:39.104Z,100442.22
2023-08-11T10:34:46.137Z,100462.16
2023-08-11T10:45:16.291Z,100432.03
2023-08-11T10:55:39.042Z,100440.59
2023-08-11T11:06:18.032Z,100424.59
2023-08-11T11:16:34.725Z,100412.03
2023-08-11T11:26:37.502Z,100436.81
2023-08-11T11:37:01.080Z,100425.72
2023-08-11T11:47:10.567Z,100413.03
2023-08-11T11:57:13.438Z,100396.16
2023-08-11T12:07:33.822Z,100396.34
2023-08-11T12:17:37.719Z,100413.44
2023-08-11T12:28:00.235Z,100391.00
2023-08-11T12:38:17.314Z,100409.84
2023-08-11T12:48:37.116Z,100401.88
2023-08-11T12:58:47.179Z,100380.47
2023-08-11T13:08:56.937Z,100387.94
2023-08-11T13:19:00.018Z,100348.75
2023-08-11T13:29:23.183Z,100372.47
2023-08-11T13:39:45.364Z,100382.63
2023-08-11T13:50:08.143Z,100370.34
2023-08-11T14:00:22.117Z,100360.84
2023-08-11T14:10:39.072Z,100357.06
2023-08-11T14:21:01.068Z,100355.00
2023-08-11T14:31:03.661Z,100345.13
2023-08-11T14:41:26.147Z,100357.41
2023-08-11T14:51:42.400Z,100336.47
2023-08-11T15:02:06.259Z,100344.59
2023-08-11T15:12:23.522Z,100343.13
2023-08-11T15:22:36.515Z,100314.22
2023-08-11T15:32:57.154Z,100321.38
2023-08-11T15:43:17.147Z,100332.59
2023-08-11T15:53:40.199Z,100340.88
2023-08-11T16:03:46.441Z,100312.06
2023-08-11T16:13:49.527Z,100335.50
2023-08-11T16:24:12.233Z,100330.03
2023-08-11T16:34:17.414Z,100311.91
2023-08-11T16:44:20.318Z,100344.31
2023-08-11T16:54:23.896Z,100327.38
2023-08-11T17:04:33.666Z,100338.16
2023-08-11T17:14:37.791Z,100320.03
2023-08-11T17:24:41.052Z,100330.75
2023-08-11T17:34:57.721Z,100335.72
2023-08-11T17:45:21.282Z,100345.78
2023-08-11T17:55:37.430Z,100333.72
2023-08-11T18:06:00.238Z,100351.75
2023-08-11T18:16:16.700Z,100352.69
2023-08-11T18:26:23.413Z,100366.88
2023-08-11T18:36:37.495Z,100364.91
2023-08-11T18:47:00.317Z,100399.63
2023-08-11T18:57:13.442Z,100376.41
2023-08-11T19:07:22.822Z,100387.47
2023-08-11T19:17:45.265Z,100410.97
2023-08-11T19:27:48.809Z,100413.00
2023-08-11T19:38:08.979Z,100386.16
2023-08-11T19:48:20.112Z,100390.94
2023-08-11T19:58:22.752Z,100423.34
2023-08-11T20:08:25.681Z,100417.34
2023-08-11T20:18:37.694Z,100391.09
2023-08-11T20:28:47.660Z,100422.47
2023-08-11T20:38:57.725Z,100384.03
2023-08-11T20:49:00.189Z,100396.34
2023-08-11T20:59:02.815Z,100391.31
2023-08-11T21:09:06.098Z,100405.28
2023-08-11T21:19:20.098Z,100385.59
2023-08-11T21:29:31.205Z,100418.38
2023-08-11T21:39:40.405Z,100424.53
2023-08-11T21:50:03.317Z,100390.72
2023-08-11T22:00:31.355Z,100394.28
2023-08-11T22:10:42.512Z,100408.88
2023-08-11T22:20:49.010Z,100427.94
2023-08-11T22:31:11.491Z,100418.31
2023-08-11T22:41:25.786Z,100421.44
2023-08-11T22:51:32.262Z,100392.94
2023-08-11T23:01:37.342Z,100413.06
2023-08-11T23:11:40.169Z,100397.56
2023-08-11T23:21:55.446Z,100388.31
2023-08-11T23:32:06.558Z,100393.63
2023-08-11T23:42:10.920Z,100367.03
2023-08-11T23:52:27.427Z,100390.91
